Fort Abbas Weather



Fort Abbas's Current Weather

Temprature 33.512o broken clouds

broken clouds

Rain: 0 %

Min Temprature33.512o
Max Temprature33.512o
Humidity17
Wind Speed5.85 m/h
Sun Rise06:11:08
Sun Set17:36:16
Current Time: 18-Oct-2019 16:48:35
Lat/Lon: 29.19, 72.85




Fort Abbas's Geo Location



Fort Abbas's Weather Forecast

Time Overall Temp Min Temp Max Temp Humidity Wind Speed Rain
18-Oct-2019 (Fri)
17:00:00 broken clouds 31.490 31.490 33.512 17 5.85 m/h 0 %
20:00:00 clear sky 26.340 26.340 27.853 25 5.08 m/h 0 %
23:00:00 clear sky 24.100 24.100 25.109 38 6.31 m/h 0 %
19-Oct-2019 (Sat)
02:00:00 clear sky 23.840 23.840 24.348 38 4.98 m/h 0 %
05:00:00 clear sky 23.498 23.498 23.498 44 4.6 m/h 0 %
08:00:00 clear sky 24.542 24.542 24.542 37 6.06 m/h 0 %
11:00:00 clear sky 31.990 31.990 31.990 27 3.54 m/h 0 %
14:00:00 clear sky 35.453 35.453 35.453 16 2.04 m/h 0 %
17:00:00 few clouds 34.054 34.054 34.054 15 4.01 m/h 0 %
20:00:00 few clouds 28.781 28.781 28.781 23 5.21 m/h 0 %
23:00:00 clear sky 28.084 28.084 28.084 22 4.08 m/h 0 %
20-Oct-2019 (Sun)
02:00:00 clear sky 25.027 25.027 25.027 26 2.44 m/h 0 %
05:00:00 clear sky 23.558 23.558 23.558 29 2.53 m/h 0 %
08:00:00 clear sky 25.584 25.584 25.584 27 2.98 m/h 0 %
11:00:00 clear sky 31.840 31.840 31.840 19 1.87 m/h 0 %
14:00:00 clear sky 34.653 34.653 34.653 14 1.02 m/h 0 %
17:00:00 clear sky 33.011 33.011 33.011 15 1.51 m/h 0 %
20:00:00 clear sky 28.953 28.953 28.953 19 2 m/h 0 %
23:00:00 clear sky 26.289 26.289 26.289 22 3.61 m/h 0 %
21-Oct-2019 (Mon)
02:00:00 clear sky 24.806 24.806 24.806 24 1.78 m/h 0 %
05:00:00 clear sky 23.997 23.997 23.997 24 2.58 m/h 0 %
08:00:00 clear sky 27.042 27.042 27.042 21 2.92 m/h 0 %
11:00:00 clear sky 33.765 33.765 33.765 13 3.46 m/h 0 %
14:00:00 clear sky 35.608 35.608 35.608 11 2.72 m/h 0 %
17:00:00 clear sky 33.124 33.124 33.124 12 1.76 m/h 0 %
20:00:00 clear sky 29.533 29.533 29.533 14 2.63 m/h 0 %
23:00:00 clear sky 26.894 26.894 26.894 17 1.81 m/h 0 %
22-Oct-2019 (Tue)
02:00:00 clear sky 24.322 24.322 24.322 20 1.56 m/h 0 %
05:00:00 clear sky 22.636 22.636 22.636 23 1.36 m/h 0 %
08:00:00 clear sky 28.211 28.211 28.211 16 3.05 m/h 0 %
11:00:00 clear sky 34.585 34.585 34.585 11 4.1 m/h 0 %
14:00:00 clear sky 36.129 36.129 36.129 9 4.43 m/h 0 %
17:00:00 clear sky 33.369 33.369 33.369 11 2.5 m/h 0 %
20:00:00 clear sky 29.350 29.350 29.350 14 2.81 m/h 0 %
23:00:00 clear sky 27.322 27.322 27.322 16 2.8 m/h 0 %
23-Oct-2019 (Wed)
02:00:00 clear sky 26.595 26.595 26.595 18 3.47 m/h 0 %
05:00:00 clear sky 25.598 25.598 25.598 21 4.12 m/h 0 %
08:00:00 clear sky 28.293 28.293 28.293 19 6.52 m/h 0 %
11:00:00 clear sky 34.724 34.724 34.724 12 7.34 m/h 0 %
14:00:00 clear sky 36.401 36.401 36.401 9 4.82 m/h 0 %

Famous Cities (61)